Time;durP1;ratioP1;P1;durP2;ratioP2;P2;SDS_P1;SDS_P2;PMS_P1;PMS_P2;Temp;Humidity;BMP_temperature;BMP_pressure;BME280_temperature;BME280_humidity;BME280_pressure;Samples;Min_cycle;Max_cycle;Signal;HPM_P1;HPM_P2
2023/11/20 00:01:48;;;;;;;14.15;7.25;;;25.50;99.90;;;;;;5031491;28;20103;-59
2023/11/20 00:04:14;;;;;;;13.48;6.95;;;25.50;99.90;;;;;;5030457;28;20128;-57
2023/11/20 00:06:39;;;;;;;8.98;6.07;;;25.50;99.90;;;;;;5032107;28;20097;-57
2023/11/20 00:09:07;;;;;;;11.88;6.65;;;25.40;99.90;;;;;;5013674;28;20029;-57
2023/11/20 00:11:33;;;;;;;10.57;6.43;;;25.40;99.90;;;;;;5031708;28;20025;-60
2023/11/20 00:13:59;;;;;;;18.35;7.13;;;25.50;99.90;;;;;;5031973;28;20026;-60
2023/11/20 00:16:25;;;;;;;9.10;6.18;;;25.40;99.90;;;;;;5013774;28;20025;-60
2023/11/20 00:18:51;;;;;;;11.10;6.60;;;25.40;99.90;;;;;;5031837;28;20025;-62
2023/11/20 00:21:17;;;;;;;11.23;6.78;;;25.40;99.90;;;;;;5031706;28;20052;-60
2023/11/20 00:23:43;;;;;;;13.35;7.07;;;25.40;99.90;;;;;;5031455;28;20040;-60
2023/11/20 00:26:14;;;;;;;10.23;6.97;;;25.40;99.90;;;;;;5031590;28;20373;-58
2023/11/20 00:28:41;;;;;;;10.73;5.82;;;25.40;99.90;;;;;;5014175;28;20033;-58
2023/11/20 00:31:17;;;;;;;9.75;6.05;;;25.30;99.90;;;;;;5013502;28;20036;-60
2023/11/20 00:33:43;;;;;;;12.68;7.15;;;25.30;99.90;;;;;;5031532;28;20116;-58
2023/11/20 00:36:09;;;;;;;11.82;5.93;;;25.30;99.90;;;;;;5031894;28;20105;-58
2023/11/20 00:38:36;;;;;;;9.45;6.15;;;25.30;99.90;;;;;;5030984;28;20053;-59
2023/11/20 00:41:02;;;;;;;12.30;6.50;;;25.30;99.90;;;;;;5031672;28;20029;-61
2023/11/20 00:43:28;;;;;;;12.07;6.38;;;25.30;99.90;;;;;;5031377;28;20030;-58
2023/11/20 00:45:54;;;;;;;11.05;5.80;;;25.30;99.90;;;;;;5031762;28;20092;-59
2023/11/20 00:48:20;;;;;;;9.52;6.47;;;25.20;99.90;;;;;;5013876;28;20437;-58
2023/11/20 00:50:46;;;;;;;11.18;6.45;;;25.20;99.90;;;;;;5031384;28;20029;-61
2023/11/20 00:53:12;;;;;;;9.52;6.43;;;25.20;99.90;;;;;;5031571;28;20032;-61
2023/11/20 00:55:37;;;;;;;10.65;6.03;;;25.20;99.90;;;;;;5031038;28;20026;-58
2023/11/20 00:58:03;;;;;;;10.15;6.15;;;25.20;99.90;;;;;;5030037;28;20048;-60
2023/11/20 01:00:29;;;;;;;8.65;5.90;;;25.20;99.90;;;;;;5043495;22;20026;-46
2023/11/20 01:02:55;;;;;;;9.90;5.43;;;25.20;99.90;;;;;;5030999;28;20109;-46
2023/11/20 01:05:22;;;;;;;8.00;5.43;;;25.20;99.90;;;;;;5031768;28;20018;-46
2023/11/20 01:07:48;;;;;;;8.82;5.32;;;25.10;99.90;;;;;;5031434;28;20425;-46
2023/11/20 01:10:14;;;;;;;10.25;6.20;;;25.10;99.90;;;;;;5035794;28;20026;-46
2023/11/20 01:12:40;;;;;;;9.63;5.90;;;25.10;99.90;;;;;;5038882;28;20029;-46
2023/11/20 01:15:06;;;;;;;10.15;5.22;;;25.10;99.90;;;;;;5033244;28;20024;-47
2023/11/20 01:17:32;;;;;;;11.85;4.88;;;25.10;99.90;;;;;;5030846;28;20042;-44
2023/11/20 01:19:58;;;;;;;10.68;5.85;;;25.10;99.90;;;;;;5041838;28;20026;-43
2023/11/20 01:22:23;;;;;;;9.07;5.35;;;25.00;99.90;;;;;;5035910;28;20033;-45
2023/11/20 01:24:50;;;;;;;6.80;5.10;;;25.10;99.90;;;;;;5042686;28;20390;-44
2023/11/20 01:27:15;;;;;;;7.38;4.68;;;25.00;99.90;;;;;;5034591;28;20075;-44
2023/11/20 01:29:41;;;;;;;7.43;5.43;;;25.00;99.90;;;;;;5034678;28;20433;-44
2023/11/20 01:32:07;;;;;;;8.13;4.40;;;25.00;99.90;;;;;;5034403;28;20018;-45
2023/11/20 01:34:33;;;;;;;7.55;4.93;;;25.00;99.90;;;;;;5034363;28;20525;-43
2023/11/20 01:36:58;;;;;;;7.50;4.53;;;25.00;99.90;;;;;;5037432;28;20025;-43
2023/11/20 01:39:24;;;;;;;7.93;4.72;;;25.00;99.90;;;;;;5034637;28;20327;-43
2023/11/20 01:41:50;;;;;;;7.32;4.30;;;25.00;99.90;;;;;;5033398;28;20021;-43
2023/11/20 01:44:16;;;;;;;8.38;4.82;;;25.00;99.90;;;;;;5043624;28;20477;-42
2023/11/20 01:46:42;;;;;;;5.47;4.10;;;24.90;99.90;;;;;;5035819;28;20025;-43
2023/11/20 01:49:08;;;;;;;6.47;4.63;;;24.90;99.90;;;;;;5044286;28;20474;-43
2023/11/20 01:51:35;;;;;;;5.95;4.13;;;24.90;99.90;;;;;;5035188;28;20485;-44
2023/11/20 01:54:02;;;;;;;6.23;4.07;;;24.90;99.90;;;;;;5034288;28;20025;-44
2023/11/20 01:56:29;;;;;;;5.53;3.78;;;24.90;99.90;;;;;;5037612;28;20037;-43
2023/11/20 01:58:59;;;;;;;5.30;4.00;;;24.90;99.90;;;;;;5041807;28;20053;-43
2023/11/20 02:01:25;;;;;;;8.00;4.60;;;24.90;99.90;;;;;;5045899;22;20405;-54
2023/11/20 02:03:58;;;;;;;6.32;4.10;;;24.80;99.90;;;;;;5034256;28;20204;-55
2023/11/20 02:06:25;;;;;;;5.85;4.45;;;24.80;99.90;;;;;;5033408;28;20543;-56
2023/11/20 02:08:51;;;;;;;5.40;3.70;;;24.80;99.90;;;;;;5033196;28;20091;-54
2023/11/20 02:11:17;;;;;;;6.60;4.00;;;24.80;99.90;;;;;;5034064;28;20485;-56
2023/11/20 02:13:43;;;;;;;8.30;4.00;;;24.80;99.90;;;;;;5031701;28;20040;-54
2023/11/20 02:16:09;;;;;;;5.63;4.20;;;24.80;99.90;;;;;;5033931;28;20026;-54
2023/11/20 02:18:35;;;;;;;6.00;3.65;;;24.70;99.90;;;;;;5033637;28;20029;-57
2023/11/20 02:21:04;;;;;;;7.07;4.00;;;24.80;99.90;;;;;;5015574;28;20087;-54
2023/11/20 02:23:30;;;;;;;8.70;3.65;;;24.70;99.90;;;;;;5033261;28;20033;-56
2023/11/20 02:26:04;;;;;;;5.22;3.58;;;24.70;99.90;;;;;;5033442;28;20473;-55
2023/11/20 02:28:39;;;;;;;4.00;3.33;;;24.70;99.90;;;;;;5032773;28;20636;-55
2023/11/20 02:31:05;;;;;;;4.57;3.30;;;24.70;99.90;;;;;;5032677;28;20067;-55
2023/11/20 02:33:36;;;;;;;6.07;3.47;;;24.70;99.90;;;;;;5031401;28;20030;-56
2023/11/20 02:36:04;;;;;;;5.45;3.15;;;24.60;99.90;;;;;;5032938;28;20444;-55
2023/11/20 02:38:31;;;;;;;;;;;24.70;99.90;;;;;;5033674;28;20500;-55
2023/11/20 02:40:59;;;;;;;4.97;3.28;;;24.60;99.90;;;;;;5033149;28;19912;-55
2023/11/20 02:43:28;;;;;;;5.10;3.08;;;24.60;99.90;;;;;;5031956;28;20378;-55
2023/11/20 02:45:55;;;;;;;5.55;2.97;;;24.60;99.90;;;;;;5032310;28;20017;-55
2023/11/20 02:48:26;;;;;;;8.20;3.30;;;24.60;99.90;;;;;;5031487;28;20025;-55
2023/11/20 02:50:53;;;;;;;5.63;3.15;;;24.50;99.90;;;;;;5032733;28;20053;-56
2023/11/20 02:53:19;;;;;;;6.05;3.20;;;24.60;99.90;;;;;;5030352;28;20470;-55
2023/11/20 02:55:45;;;;;;;3.38;2.42;;;24.50;99.90;;;;;;5032628;28;20032;-55
2023/11/20 02:58:10;;;;;;;2.97;2.58;;;24.50;99.90;;;;;;5031127;28;20096;-55
2023/11/20 03:00:38;;;;;;;5.80;2.42;;;24.50;99.90;;;;;;5039080;22;20053;-48
2023/11/20 03:03:04;;;;;;;4.93;3.00;;;24.50;99.90;;;;;;4994445;28;20043;-48
2023/11/20 03:05:30;;;;;;;7.05;3.22;;;24.50;99.90;;;;;;4993003;28;20383;-46
2023/11/20 03:07:56;;;;;;;4.00;2.78;;;24.40;99.90;;;;;;4991990;28;20026;-47
2023/11/20 03:10:21;;;;;;;3.55;2.75;;;24.40;99.90;;;;;;4999093;28;20018;-47
2023/11/20 03:12:48;;;;;;;3.50;2.53;;;24.40;99.90;;;;;;5012295;28;20034;-47
2023/11/20 03:15:13;;;;;;;5.97;2.90;;;24.40;99.90;;;;;;5011281;28;20010;-47
2023/11/20 03:17:39;;;;;;;8.23;2.58;;;24.40;99.90;;;;;;5011171;28;20497;-47
2023/11/20 03:20:06;;;;;;;3.90;2.95;;;24.40;99.90;;;;;;5011570;28;20023;-47
2023/11/20 03:22:33;;;;;;;2.88;2.15;;;24.40;99.90;;;;;;5012284;28;20034;-47
2023/11/20 03:24:59;;;;;;;;;;;24.40;99.90;;;;;;5010363;28;20034;-47
2023/11/20 03:27:25;;;;;;;4.60;2.90;;;24.30;99.90;;;;;;5012362;28;19948;-47
2023/11/20 03:29:51;;;;;;;3.90;2.80;;;24.30;99.90;;;;;;4993774;28;20054;-47
2023/11/20 03:32:17;;;;;;;3.75;2.53;;;24.30;99.90;;;;;;4992948;28;20038;-47
2023/11/20 03:34:43;;;;;;;3.60;2.38;;;24.30;99.90;;;;;;4991448;28;20027;-47
2023/11/20 03:37:09;;;;;;;3.63;2.28;;;24.30;99.90;;;;;;4996749;28;20540;-46
2023/11/20 03:39:35;;;;;;;5.60;2.85;;;24.30;99.90;;;;;;5012034;28;20033;-47
2023/11/20 03:42:01;;;;;;;5.75;2.60;;;24.30;99.90;;;;;;5010938;28;20537;-47
2023/11/20 03:44:26;;;;;;;3.45;2.15;;;24.20;99.90;;;;;;5010569;28;20498;-47
2023/11/20 03:46:52;;;;;;;4.25;2.40;;;24.20;99.90;;;;;;5003434;28;20498;-47
2023/11/20 03:49:18;;;;;;;3.83;2.30;;;24.20;99.90;;;;;;5011845;28;20034;-47
2023/11/20 03:51:44;;;;;;;3.20;2.30;;;24.20;99.90;;;;;;5011127;28;20025;-47
2023/11/20 03:54:09;;;;;;;4.20;2.63;;;24.20;99.90;;;;;;5011533;28;20030;-47
2023/11/20 03:56:35;;;;;;;4.63;2.45;;;24.10;99.90;;;;;;4997495;28;20498;-47
2023/11/20 03:59:01;;;;;;;4.70;2.30;;;24.20;99.90;;;;;;4992156;28;20092;-47
2023/11/20 04:01:26;;;;;;;4.60;2.42;;;24.10;99.90;;;;;;4991435;28;20054;-47
2023/11/20 04:03:52;;;;;;;2.60;2.00;;;24.10;99.90;;;;;;4992360;28;20053;-47
2023/11/20 04:06:18;;;;;;;3.92;2.20;;;24.10;99.90;;;;;;5012041;28;20018;-48
2023/11/20 04:08:44;;;;;;;2.78;1.98;;;24.10;99.90;;;;;;5011175;28;20021;-47
2023/11/20 04:11:09;;;;;;;2.97;2.10;;;24.00;99.90;;;;;;5010447;28;20462;-48
2023/11/20 04:13:35;;;;;;;3.72;2.40;;;24.00;99.90;;;;;;5010086;28;20034;-48
2023/11/20 04:16:01;;;;;;;3.65;2.33;;;24.00;99.90;;;;;;5011491;28;20025;-47
2023/11/20 04:18:27;;;;;;;3.58;2.22;;;24.00;99.90;;;;;;5011750;28;20099;-47
2023/11/20 04:20:54;;;;;;;4.10;2.03;;;24.00;99.90;;;;;;5010767;28;20065;-47
2023/11/20 04:23:20;;;;;;;3.00;2.00;;;24.00;99.90;;;;;;5010815;28;20042;-47
2023/11/20 04:25:46;;;;;;;4.90;2.00;;;24.00;99.90;;;;;;5011476;28;20029;-47
2023/11/20 04:28:12;;;;;;;3.10;2.03;;;24.00;99.90;;;;;;5011077;28;20029;-47
2023/11/20 04:30:37;;;;;;;2.92;1.95;;;24.00;99.90;;;;;;5011245;28;20378;-47
2023/11/20 04:33:03;;;;;;;3.70;1.70;;;23.90;99.90;;;;;;5011079;28;20133;-47
2023/11/20 04:35:29;;;;;;;2.85;2.13;;;23.90;99.90;;;;;;5011107;28;20496;-48
2023/11/20 04:37:55;;;;;;;3.95;2.28;;;23.90;99.90;;;;;;5010232;28;20025;-47
2023/11/20 04:40:21;;;;;;;3.22;1.92;;;23.90;99.90;;;;;;5010537;28;20027;-47
2023/11/20 04:42:46;;;;;;;2.30;2.00;;;23.90;99.90;;;;;;5011542;28;20041;-47
2023/11/20 04:45:12;;;;;;;3.45;2.20;;;23.90;99.90;;;;;;5011859;28;20044;-47
2023/11/20 04:47:40;;;;;;;3.80;2.05;;;23.90;99.90;;;;;;5010233;28;20235;-47
2023/11/20 04:50:08;;;;;;;3.08;2.20;;;23.90;99.90;;;;;;5011195;28;20029;-47
2023/11/20 04:52:35;;;;;;;3.47;2.28;;;23.90;99.90;;;;;;5011964;28;20037;-47
2023/11/20 04:55:03;;;;;;;4.05;2.50;;;23.90;99.90;;;;;;5011239;28;20026;-47
2023/11/20 04:57:29;;;;;;;4.13;2.15;;;23.90;99.90;;;;;;5014985;28;20493;-47
2023/11/20 04:59:57;;;;;;;3.22;2.00;;;23.80;99.90;;;;;;5014143;28;20037;-48
2023/11/20 05:02:25;;;;;;;2.70;1.98;;;23.80;99.90;;;;;;5014622;28;20137;-47
2023/11/20 05:04:51;;;;;;;3.35;2.35;;;23.80;99.90;;;;;;5012590;28;20049;-47
2023/11/20 05:07:17;;;;;;;3.92;2.55;;;23.80;99.90;;;;;;5013732;28;20026;-47
2023/11/20 05:09:43;;;;;;;3.72;2.60;;;23.80;99.90;;;;;;5015093;28;20113;-47
2023/11/20 05:12:08;;;;;;;4.65;2.20;;;23.80;99.90;;;;;;5014446;28;20084;-47
2023/11/20 05:14:34;;;;;;;6.85;2.42;;;23.70;99.90;;;;;;5013721;28;20034;-47
2023/11/20 05:17:00;;;;;;;4.20;1.77;;;23.80;99.90;;;;;;5014667;28;20029;-47
2023/11/20 05:19:26;;;;;;;3.10;1.92;;;23.80;99.90;;;;;;5014609;28;20033;-47
2023/11/20 05:21:52;;;;;;;3.25;2.05;;;23.70;99.90;;;;;;5014539;28;20018;-47
2023/11/20 05:24:18;;;;;;;1.98;1.67;;;23.70;99.90;;;;;;5013995;28;20025;-47
2023/11/20 05:26:43;;;;;;;2.63;1.80;;;23.70;99.90;;;;;;5014040;28;20501;-47
2023/11/20 05:29:11;;;;;;;2.85;2.00;;;23.70;99.90;;;;;;5014364;28;20026;-47
2023/11/20 05:31:38;;;;;;;2.65;1.83;;;23.70;99.90;;;;;;5013792;28;20042;-47
2023/11/20 05:34:04;;;;;;;5.05;2.15;;;23.70;99.90;;;;;;5011824;28;20050;-47
2023/11/20 05:36:29;;;;;;;4.18;2.00;;;23.70;99.90;;;;;;5014583;28;20061;-47
2023/11/20 05:38:55;;;;;;;3.47;1.83;;;23.70;99.90;;;;;;5013670;28;20145;-48
2023/11/20 05:41:21;;;;;;;3.42;2.00;;;23.70;99.90;;;;;;5013157;28;20022;-47
2023/11/20 05:43:47;;;;;;;3.25;2.00;;;23.70;99.90;;;;;;5013690;28;20041;-47
2023/11/20 05:46:15;;;;;;;3.22;1.92;;;23.70;99.90;;;;;;4993757;28;20030;-47
2023/11/20 05:48:41;;;;;;;4.13;1.85;;;23.60;99.90;;;;;;4994398;28;20034;-47
2023/11/20 05:51:07;;;;;;;2.58;1.85;;;23.70;99.90;;;;;;4992417;28;20029;-48
2023/11/20 05:53:33;;;;;;;5.43;2.67;;;23.70;99.90;;;;;;5007845;28;20083;-47
2023/11/20 05:55:58;;;;;;;4.50;2.33;;;23.70;99.90;;;;;;5013834;28;20382;-47
2023/11/20 05:58:26;;;;;;;3.85;2.05;;;23.60;99.90;;;;;;5013289;28;20124;-47
2023/11/20 06:00:51;;;;;;;6.60;2.08;;;23.60;99.90;;;;;;5012918;28;20034;-47
2023/11/20 06:03:17;;;;;;;3.78;2.08;;;23.60;99.90;;;;;;5013566;28;20406;-47
2023/11/20 06:05:43;;;;;;;4.43;2.10;;;23.60;99.90;;;;;;5012956;28;20047;-47
2023/11/20 06:08:09;;;;;;;3.25;1.90;;;23.60;99.90;;;;;;5012770;28;20037;-47
2023/11/20 06:10:34;;;;;;;3.47;1.70;;;23.60;99.90;;;;;;5012030;28;20025;-47
2023/11/20 06:13:01;;;;;;;4.63;1.80;;;23.60;99.90;;;;;;5013802;28;20022;-46
2023/11/20 06:15:26;;;;;;;2.90;1.63;;;23.60;99.90;;;;;;5013676;28;20105;-47
2023/11/20 06:17:52;;;;;;;6.95;1.90;;;23.60;99.90;;;;;;5012961;28;20049;-47
2023/11/20 06:20:18;;;;;;;4.68;1.95;;;23.60;99.90;;;;;;5013083;28;20537;-47
2023/11/20 06:22:44;;;;;;;2.70;1.80;;;23.60;99.90;;;;;;5013418;28;20144;-48
2023/11/20 06:25:12;;;;;;;5.35;2.42;;;23.50;99.90;;;;;;5013084;28;20431;-48
2023/11/20 06:27:37;;;;;;;5.13;1.75;;;23.50;99.90;;;;;;5013026;28;20072;-47
2023/11/20 06:30:05;;;;;;;7.90;2.72;;;23.50;99.90;;;;;;5012887;28;20426;-47
2023/11/20 06:32:31;;;;;;;2.35;1.65;;;23.50;99.90;;;;;;5013008;28;20025;-47
2023/11/20 06:34:57;;;;;;;3.75;1.67;;;23.50;99.90;;;;;;5012010;28;20025;-48
2023/11/20 06:37:23;;;;;;;2.38;1.83;;;23.50;99.90;;;;;;5011323;28;20054;-48
2023/11/20 06:39:48;;;;;;;4.78;1.60;;;23.50;99.90;;;;;;4977131;28;20045;-48
2023/11/20 06:42:14;;;;;;;2.83;1.83;;;23.50;99.90;;;;;;4993848;28;20097;-47
2023/11/20 06:44:40;;;;;;;3.70;1.70;;;23.40;99.90;;;;;;4991113;28;20375;-47
2023/11/20 06:47:09;;;;;;;3.30;1.63;;;23.40;99.90;;;;;;5000959;28;20022;-46
2023/11/20 06:49:41;;;;;;;3.40;1.80;;;23.40;99.90;;;;;;4995349;28;20041;-46
2023/11/20 06:52:07;;;;;;;4.82;1.85;;;23.50;99.90;;;;;;5012835;28;20026;-46
2023/11/20 06:54:34;;;;;;;3.88;2.15;;;23.40;99.90;;;;;;5012506;28;20022;-47
2023/11/20 06:56:59;;;;;;;4.80;2.45;;;23.40;99.90;;;;;;5012158;28;20545;-47
2023/11/20 06:59:29;;;;;;;4.95;2.42;;;23.40;99.90;;;;;;5013456;28;20030;-47
2023/11/20 07:01:55;;;;;;;3.42;2.08;;;23.40;99.90;;;;;;5012603;28;20047;-47
2023/11/20 07:04:20;;;;;;;2.97;1.70;;;23.40;99.90;;;;;;5012339;28;20042;-47
2023/11/20 07:06:47;;;;;;;3.90;2.10;;;23.40;99.90;;;;;;5012857;28;20025;-48
2023/11/20 07:09:14;;;;;;;2.58;1.52;;;23.40;99.90;;;;;;5012618;28;20029;-47
2023/11/20 07:11:41;;;;;;;6.10;1.80;;;23.40;99.90;;;;;;5011953;28;20112;-47
2023/11/20 07:14:11;;;;;;;5.10;1.77;;;23.40;99.90;;;;;;5011544;28;20033;-47
2023/11/20 07:16:40;;;;;;;4.88;2.53;;;23.40;99.90;;;;;;5012401;28;20286;-47
2023/11/20 07:19:07;;;;;;;5.43;2.38;;;23.40;99.90;;;;;;5012018;28;20021;-47
2023/11/20 07:21:34;;;;;;;5.25;2.45;;;23.40;99.90;;;;;;5012047;28;20111;-48
2023/11/20 07:24:01;;;;;;;6.18;2.30;;;23.40;99.90;;;;;;5011888;28;20438;-49
2023/11/20 07:26:27;;;;;;;3.60;2.55;;;23.40;99.90;;;;;;5012001;28;20379;-47
2023/11/20 07:28:53;;;;;;;4.25;2.20;;;23.40;99.90;;;;;;5011317;28;20298;-47
2023/11/20 07:31:26;;;;;;;4.40;2.22;;;23.40;99.90;;;;;;4992576;28;20462;-48
2023/11/20 07:33:52;;;;;;;4.82;2.13;;;23.40;99.90;;;;;;5012249;28;20028;-47
2023/11/20 07:36:18;;;;;;;6.07;2.47;;;23.40;99.90;;;;;;5011445;28;20101;-48
2023/11/20 07:38:44;;;;;;;4.28;2.25;;;23.40;99.90;;;;;;5011454;28;20114;-47
2023/11/20 07:41:11;;;;;;;3.88;2.40;;;23.50;99.90;;;;;;5011915;28;20125;-47
2023/11/20 07:43:38;;;;;;;8.10;3.15;;;23.50;99.90;;;;;;5012151;28;20117;-47
2023/11/20 07:46:04;;;;;;;4.95;2.22;;;23.50;99.90;;;;;;5011979;28;20026;-48
2023/11/20 07:48:32;;;;;;;7.35;2.70;;;23.60;99.90;;;;;;5011149;28;20030;-47
2023/11/20 07:50:58;;;;;;;4.13;2.58;;;23.60;99.90;;;;;;5011416;28;20080;-47
2023/11/20 07:53:24;;;;;;;3.22;2.55;;;23.60;99.90;;;;;;5011802;28;20029;-48
2023/11/20 07:55:50;;;;;;;4.03;2.58;;;23.60;99.90;;;;;;5011985;28;20022;-48
2023/11/20 07:58:16;;;;;;;5.15;2.53;;;23.60;99.90;;;;;;5010755;28;20033;-47
2023/11/20 08:00:42;;;;;;;3.17;2.30;;;23.70;99.90;;;;;;5012068;28;20483;-48
2023/11/20 08:03:08;;;;;;;8.18;2.50;;;23.70;99.90;;;;;;5010599;28;20034;-47
2023/11/20 08:05:35;;;;;;;4.25;2.60;;;23.70;99.90;;;;;;5011227;28;20026;-47
2023/11/20 08:08:01;;;;;;;9.15;3.10;;;23.70;99.90;;;;;;5011044;28;20026;-48
2023/11/20 08:10:26;;;;;;;6.22;2.70;;;23.80;99.90;;;;;;5011569;28;20085;-47
2023/11/20 08:12:52;;;;;;;3.72;2.17;;;23.80;99.90;;;;;;5011075;28;20038;-48
2023/11/20 08:15:18;;;;;;;5.72;2.55;;;23.90;99.90;;;;;;4993379;28;20036;-47
2023/11/20 08:17:44;;;;;;;4.65;2.50;;;23.90;99.90;;;;;;5011207;28;20021;-48
2023/11/20 08:20:10;;;;;;;4.03;2.63;;;23.90;99.90;;;;;;5010928;28;20032;-48
2023/11/20 08:22:39;;;;;;;4.85;2.60;;;24.00;99.90;;;;;;4992517;28;20467;-48
2023/11/20 08:25:06;;;;;;;6.93;2.83;;;24.00;99.90;;;;;;5010360;28;20065;-48
2023/11/20 08:27:31;;;;;;;4.35;2.55;;;24.00;99.90;;;;;;5010902;28;20525;-48
2023/11/20 08:29:57;;;;;;;4.53;2.30;;;24.00;99.90;;;;;;5011338;28;20098;-48
2023/11/20 08:32:24;;;;;;;4.65;2.38;;;24.00;99.90;;;;;;5014553;28;20500;-48
2023/11/20 08:34:50;;;;;;;7.80;2.20;;;24.10;99.90;;;;;;5014614;28;20037;-48
2023/11/20 08:37:16;;;;;;;5.95;2.50;;;24.10;99.90;;;;;;5015464;28;20080;-49
2023/11/20 08:39:43;;;;;;;3.67;2.50;;;24.10;99.90;;;;;;5014501;28;20022;-48
2023/11/20 08:42:09;;;;;;;3.05;2.33;;;24.20;99.90;;;;;;5014547;28;20084;-48
2023/11/20 08:44:35;;;;;;;3.90;1.90;;;24.20;99.90;;;;;;5014531;28;20042;-48
2023/11/20 08:47:00;;;;;;;3.65;2.38;;;24.30;99.90;;;;;;5015235;28;20034;-48
2023/11/20 08:49:27;;;;;;;7.25;2.88;;;24.30;99.90;;;;;;5015646;28;20021;-48
2023/11/20 08:51:53;;;;;;;4.32;2.28;;;24.30;99.90;;;;;;5014933;28;20026;-48
2023/11/20 08:54:19;;;;;;;3.35;2.15;;;24.30;99.90;;;;;;5014453;28;20316;-47
2023/11/20 08:56:46;;;;;;;5.53;2.35;;;24.40;99.90;;;;;;5015158;28;20025;-48
2023/11/20 08:59:12;;;;;;;6.47;2.53;;;24.40;99.90;;;;;;5015130;28;20030;-48
2023/11/20 09:01:39;;;;;;;5.57;2.85;;;24.50;99.90;;;;;;5013874;28;20125;-48
2023/11/20 09:04:05;;;;;;;4.85;2.78;;;24.50;99.90;;;;;;5015331;28;20034;-48
2023/11/20 09:06:32;;;;;;;5.30;2.33;;;24.50;99.90;;;;;;5013995;28;20033;-48
2023/11/20 09:08:58;;;;;;;5.13;2.40;;;24.50;99.90;;;;;;5014577;28;20044;-48
2023/11/20 09:11:24;;;;;;;3.90;2.10;;;24.50;99.90;;;;;;5014230;28;20034;-48
2023/11/20 09:13:52;;;;;;;5.35;2.05;;;24.60;99.90;;;;;;5014509;28;20022;-50
2023/11/20 09:16:22;;;;;;;6.75;2.53;;;24.60;99.90;;;;;;5014603;28;20026;-48
2023/11/20 09:18:48;;;;;;;4.05;2.28;;;24.70;99.90;;;;;;5014211;28;20386;-48
2023/11/20 09:21:14;;;;;;;6.70;2.80;;;24.70;99.90;;;;;;5014138;28;20080;-50
2023/11/20 09:23:41;;;;;;;4.35;2.25;;;24.70;99.90;;;;;;5014462;28;20053;-48
2023/11/20 09:26:11;;;;;;;4.65;1.83;;;24.80;99.90;;;;;;5013749;28;20022;-48
2023/11/20 09:28:40;;;;;;;5.70;2.30;;;24.80;99.90;;;;;;5013541;28;20033;-48
2023/11/20 09:31:06;;;;;;;5.40;2.42;;;24.80;99.90;;;;;;5014578;28;20092;-48
2023/11/20 09:33:34;;;;;;;3.83;2.20;;;24.90;99.90;;;;;;5014454;28;20026;-48
2023/11/20 09:36:00;;;;;;;4.53;2.00;;;24.90;99.90;;;;;;5013230;28;20496;-48
2023/11/20 09:38:26;;;;;;;4.38;2.25;;;25.00;99.90;;;;;;5013663;28;20026;-48
2023/11/20 09:40:53;;;;;;;6.35;2.45;;;25.00;99.90;;;;;;5013658;28;20080;-48
2023/11/20 09:43:21;;;;;;;3.67;2.33;;;25.00;99.90;;;;;;5013380;28;20026;-48
2023/11/20 09:45:50;;;;;;;3.85;1.85;;;25.00;99.90;;;;;;5013852;28;20104;-48
2023/11/20 09:48:18;;;;;;;8.00;2.42;;;25.10;99.90;;;;;;5013592;28;20030;-49
2023/11/20 09:50:47;;;;;;;5.55;2.35;;;25.10;99.90;;;;;;5014042;28;20022;-48
2023/11/20 09:53:13;;;;;;;2.58;2.00;;;25.20;99.90;;;;;;5014094;28;20490;-48
2023/11/20 09:55:39;;;;;;;4.85;1.92;;;25.20;99.90;;;;;;5012606;28;20033;-48
2023/11/20 09:58:06;;;;;;;5.13;1.90;;;25.20;99.90;;;;;;5014308;28;20022;-48
2023/11/20 10:00:32;;;;;;;3.70;2.08;;;25.30;99.90;;;;;;5013730;28;20100;-48
2023/11/20 10:02:59;;;;;;;4.78;2.40;;;25.30;99.90;;;;;;5012949;28;20156;-48
2023/11/20 10:05:30;;;;;;;6.25;2.15;;;25.40;99.90;;;;;;5013260;28;20489;-48
2023/11/20 10:07:58;;;;;;;4.47;2.42;;;25.40;99.90;;;;;;4993984;28;20023;-48
2023/11/20 10:10:26;;;;;;;5.47;3.05;;;25.50;99.90;;;;;;4994332;28;20022;-49
2023/11/20 10:12:53;;;;;;;4.15;1.90;;;25.50;99.90;;;;;;4993543;28;20022;-48
2023/11/20 10:15:22;;;;;;;4.28;2.03;;;25.60;99.90;;;;;;5008931;28;20328;-48
2023/11/20 10:17:48;;;;;;;4.70;2.10;;;25.60;99.90;;;;;;5013707;28;20030;-48
2023/11/20 10:20:15;;;;;;;6.43;3.10;;;25.60;99.90;;;;;;4996092;28;20429;-48
2023/11/20 10:22:41;;;;;;;;;;;25.70;99.90;;;;;;5012474;28;20079;-48
2023/11/20 10:25:08;;;;;;;3.45;2.00;;;25.70;99.90;;;;;;5013783;28;19906;-48
2023/11/20 10:27:34;;;;;;;;;;;25.80;99.90;;;;;;5014035;28;20029;-48
2023/11/20 10:30:00;;;;;;;3.65;2.25;;;25.80;99.90;;;;;;5012257;28;19985;-48
2023/11/20 10:32:27;;;;;;;3.40;2.00;;;25.90;99.90;;;;;;5012764;28;20490;-48
2023/11/20 10:35:14;;;;;;;3.50;1.90;;;25.90;99.90;;;;;;4993933;28;20058;-48
2023/11/20 10:38:01;;;;;;;4.22;2.47;;;25.90;99.90;;;;;;4993362;28;20040;-48
2023/11/20 10:40:27;;;;;;;3.97;2.25;;;25.90;99.90;;;;;;4993259;28;20029;-48
2023/11/20 10:42:53;;;;;;;4.55;1.98;;;26.00;99.90;;;;;;4982350;28;20561;-46
2023/11/20 10:45:20;;;;;;;2.78;2.00;;;26.00;99.90;;;;;;5012264;28;20100;-48
2023/11/20 10:47:46;;;;;;;6.07;2.72;;;26.00;99.90;;;;;;5011578;28;20477;-48
2023/11/20 10:50:17;;;;;;;5.18;2.45;;;26.00;99.90;;;;;;5011977;28;20493;-49
2023/11/20 10:52:46;;;;;;;4.13;2.40;;;26.10;99.90;;;;;;5011858;28;20037;-48
2023/11/20 10:55:12;;;;;;;6.32;2.83;;;26.10;99.90;;;;;;5012523;28;20029;-52
2023/11/20 10:57:39;;;;;;;17.60;15.50;;;26.20;99.90;;;;;;5012119;28;20029;-50
2023/11/20 11:00:10;;;;;;;17.90;15.80;;;26.10;99.90;;;;;;5011821;28;20018;-49
2023/11/20 11:02:42;;;;;;;14.65;11.65;;;26.00;99.90;;;;;;4988092;28;20040;-48
2023/11/20 11:05:10;;;;;;;9.90;8.60;;;25.80;99.90;;;;;;5003331;28;20160;-48
2023/11/20 11:07:41;;;;;;;12.30;8.02;;;25.70;99.90;;;;;;5003451;28;20030;-48
2023/11/20 11:10:11;;;;;;;11.20;9.57;;;25.40;99.90;;;;;;4996895;28;20026;-48
2023/11/20 11:12:46;;;;;;;13.40;8.57;;;25.10;99.90;;;;;;5005018;28;20026;-48
2023/11/20 11:15:15;;;;;;;12.60;7.28;;;24.90;99.90;;;;;;5003745;28;20025;-48
2023/11/20 11:17:45;;;;;;;7.53;6.10;;;24.90;99.90;;;;;;5005789;28;20038;-48
2023/11/20 11:20:14;;;;;;;8.60;5.78;;;24.90;99.90;;;;;;4994464;28;20467;-48
2023/11/20 11:22:44;;;;;;;7.95;5.20;;;24.90;99.90;;;;;;5001462;28;20065;-48
2023/11/20 11:25:10;;;;;;;11.02;5.22;;;25.00;99.90;;;;;;5003263;28;20039;-48
2023/11/20 11:27:39;;;;;;;8.77;4.70;;;25.00;99.90;;;;;;4997856;28;20050;-49
2023/11/20 11:30:09;;;;;;;7.25;4.18;;;25.10;99.90;;;;;;4994733;28;20026;-49
2023/11/20 11:32:40;;;;;;;9.65;4.38;;;25.30;99.90;;;;;;5005269;28;20026;-48
2023/11/20 11:35:19;;;;;;;4.80;3.92;;;25.30;99.90;;;;;;5006780;28;20045;-48
2023/11/20 11:38:15;;;;;;;7.72;4.20;;;25.40;99.90;;;;;;4981732;28;20022;-48
2023/11/20 11:41:23;;;;;;;6.43;3.95;;;25.50;99.90;;;;;;4998191;28;20027;-48
2023/11/20 11:44:07;;;;;;;7.13;4.20;;;25.60;99.90;;;;;;5006384;28;20038;-48
2023/11/20 11:46:36;;;;;;;6.45;4.05;;;25.70;99.90;;;;;;4997474;28;20034;-48
2023/11/20 11:49:19;;;;;;;6.72;4.28;;;25.80;99.90;;;;;;4996136;28;20033;-49
2023/11/20 11:52:02;;;;;;;9.75;4.53;;;25.90;99.90;;;;;;4990488;28;20022;-49
2023/11/20 11:54:30;;;;;;;6.00;3.72;;;25.90;99.90;;;;;;4999160;28;20068;-49
2023/11/20 11:57:09;;;;;;;6.85;4.28;;;25.90;99.90;;;;;;5002587;28;20030;-49
2023/11/20 11:59:45;;;;;;;7.57;3.83;;;26.00;99.90;;;;;;5006609;28;20057;-49
2023/11/20 12:02:15;;;;;;;6.45;3.95;;;26.00;99.90;;;;;;5006574;28;20038;-49
2023/11/20 12:04:56;;;;;;;7.95;5.30;;;26.00;99.90;;;;;;4995322;28;20117;-48
2023/11/20 12:07:49;;;;;;;9.82;6.43;;;26.10;99.90;;;;;;5006714;28;20030;-48
2023/11/20 12:10:16;;;;;;;9.77;7.25;;;26.10;99.90;;;;;;4988494;28;20126;-48
2023/11/20 12:12:46;;;;;;;7.68;6.35;;;26.10;99.90;;;;;;5002629;28;20544;-48
2023/11/20 12:15:29;;;;;;;13.45;5.85;;;26.20;99.90;;;;;;5006518;28;20030;-48
2023/11/20 12:17:59;;;;;;;9.30;5.00;;;26.20;99.90;;;;;;5004968;28;20077;-48
2023/11/20 12:20:29;;;;;;;7.72;4.57;;;26.20;99.90;;;;;;5005471;28;20042;-48
2023/11/20 12:22:55;;;;;;;9.00;4.50;;;26.30;99.90;;;;;;4997621;28;20076;-48
2023/11/20 12:25:21;;;;;;;6.78;4.15;;;26.30;99.90;;;;;;5004398;28;20038;-48
2023/11/20 12:27:46;;;;;;;4.82;3.90;;;26.30;99.90;;;;;;5007500;28;20084;-49
2023/11/20 12:30:13;;;;;;;5.45;4.05;;;26.30;99.90;;;;;;5000361;28;20062;-48
2023/11/20 12:32:39;;;;;;;7.18;3.55;;;26.30;99.90;;;;;;4995322;28;20030;-49
2023/11/20 12:35:09;;;;;;;7.03;3.88;;;26.40;99.90;;;;;;5004158;28;20033;-49
2023/11/20 12:37:35;;;;;;;8.50;3.92;;;26.40;99.90;;;;;;4996846;28;20050;-48
2023/11/20 12:40:02;;;;;;;7.25;3.97;;;26.40;99.90;;;;;;4997730;28;20431;-48
2023/11/20 12:42:28;;;;;;;7.80;4.43;;;26.40;99.90;;;;;;4993367;28;20477;-47
2023/11/20 12:44:54;;;;;;;7.32;4.03;;;26.40;99.90;;;;;;4989809;28;20045;-48
2023/11/20 12:47:20;;;;;;;4.35;3.33;;;26.40;99.90;;;;;;4998831;28;20390;-47
2023/11/20 12:49:46;;;;;;;5.03;3.30;;;26.50;99.90;;;;;;5006848;28;20054;-47